Time;durP1;ratioP1;P1;durP2;ratioP2;P2;SDS_P1;SDS_P2;PMS_P1;PMS_P2;Temp;Humidity;BMP_temperature;BMP_pressure;BME280_temperature;BME280_humidity;BME280_pressure;Samples;Min_cycle;Max_cycle;Signal;HPM_P1;HPM_P2
2023/04/17 00:00:24;;;;;;;;;1.00;1.00;;;;;21.10;56.28;101456.35;110205;1251;20645;-41
2023/04/17 00:03:12;;;;;;;;;1.00;1.00;;;;;21.10;56.14;101451.85;110190;1264;23898;-39
2023/04/17 00:05:42;;;;;;;;;1.00;1.00;;;;;21.09;56.29;101456.25;110186;1264;24224;-40
2023/04/17 00:08:10;;;;;;;;;1.00;1.00;;;;;21.10;56.35;101457.67;110189;1264;20531;-39
2023/04/17 00:10:37;;;;;;;;;1.00;1.00;;;;;21.10;56.17;101461.44;110206;1251;21559;-39
2023/04/17 00:13:04;;;;;;;;;1.00;1.00;;;;;21.11;56.26;101456.50;110194;1251;22068;-39
2023/04/17 00:15:32;;;;;;;;;1.00;1.00;;;;;21.10;56.26;101458.40;110190;1264;21376;-39
2023/04/17 00:17:59;;;;;;;;;1.00;1.00;;;;;21.10;56.25;101459.08;110217;1250;20530;-39
2023/04/17 00:20:27;;;;;;;;;1.00;1.00;;;;;21.10;56.26;101466.00;110191;1264;19567;-41
2023/04/17 00:22:54;;;;;;;;;1.00;1.00;;;;;21.09;56.18;101469.88;110198;1264;23519;-41
2023/04/17 00:25:21;;;;;;;;;1.00;1.00;;;;;21.09;56.27;101471.52;110210;1264;22865;-40
2023/04/17 00:27:49;;;;;;;;;2.00;1.67;;;;;21.09;56.30;101474.07;110199;1264;19206;-41
2023/04/17 00:30:17;;;;;;;;;1.00;1.00;;;;;21.09;56.21;101482.59;110175;1251;19373;-40
2023/04/17 00:32:44;;;;;;;;;1.00;1.00;;;;;21.09;56.24;101476.43;110227;1264;20201;-40
2023/04/17 00:35:11;;;;;;;;;1.00;1.00;;;;;21.09;56.12;101476.46;110271;1264;22975;-39
2023/04/17 00:37:39;;;;;;;;;1.00;1.00;;;;;21.09;56.21;101474.98;110223;1264;19353;-39
2023/04/17 00:40:06;;;;;;;;;1.00;1.00;;;;;21.09;56.19;101478.80;110199;1264;23129;-39
2023/04/17 00:42:34;;;;;;;;;1.00;1.00;;;;;21.09;56.24;101478.30;110200;1264;22942;-40
2023/04/17 00:45:03;;;;;;;;;1.00;1.00;;;;;21.08;56.20;101475.23;110215;1264;20715;-39
2023/04/17 00:47:30;;;;;;;;;1.00;1.00;;;;;21.09;56.18;101474.30;110185;1251;22888;-41
2023/04/17 00:49:58;;;;;;;;;1.00;1.00;;;;;21.09;56.25;101480.10;110185;1264;19559;-39
2023/04/17 00:52:25;;;;;;;;;1.00;1.00;;;;;21.09;56.27;101471.04;110188;1264;20699;-39
2023/04/17 00:54:52;;;;;;;;;1.00;1.00;;;;;21.08;56.25;101469.77;110187;1264;23066;-40
2023/04/17 00:57:20;;;;;;;;;1.00;1.00;;;;;21.08;56.30;101470.15;110216;1264;22932;-39
2023/04/17 00:59:47;;;;;;;;;1.00;1.00;;;;;21.08;56.21;101469.80;110188;1264;20895;-40
2023/04/17 01:02:15;;;;;;;;;1.00;1.00;;;;;21.08;56.24;101468.17;110159;1251;21933;-39
2023/04/17 01:04:43;;;;;;;;;1.00;1.00;;;;;21.09;56.11;101467.02;110208;1264;19139;-40
2023/04/17 01:07:10;;;;;;;;;1.00;1.00;;;;;21.08;56.16;101474.51;110109;1264;19519;-40
2023/04/17 01:09:38;;;;;;;;;1.00;1.00;;;;;21.08;56.17;101479.96;110178;1264;22949;-39
2023/04/17 01:12:05;;;;;;;;;1.00;1.00;;;;;21.07;56.15;101484.05;110186;1264;19050;-39
2023/04/17 01:14:32;;;;;;;;;1.00;1.00;;;;;21.07;56.12;101482.24;110157;1264;22952;-40
2023/04/17 01:17:01;;;;;;;;;1.00;1.00;;;;;21.08;56.22;101482.02;110174;1264;20149;-39
2023/04/17 01:19:28;;;;;;;;;1.00;1.00;;;;;21.09;56.08;101484.66;110184;1264;23526;-40
2023/04/17 01:21:56;;;;;;;;;1.00;1.00;;;;;21.09;55.99;101485.96;110212;1264;19472;-40
2023/04/17 01:24:24;;;;;;;;;1.00;1.00;;;;;21.08;56.08;101486.73;110198;1264;20121;-41
2023/04/17 01:26:52;;;;;;;;;1.00;1.00;;;;;21.07;56.06;101485.69;110268;1260;20583;-40
2023/04/17 01:29:20;;;;;;;;;1.00;1.00;;;;;21.07;56.11;101485.20;110245;1250;21679;-40
2023/04/17 01:31:47;;;;;;;;;1.00;1.00;;;;;21.07;56.01;101486.98;110292;1251;22798;-40
2023/04/17 01:34:15;;;;;;;;;1.00;1.00;;;;;21.06;56.11;101489.23;110292;1264;19168;-45
2023/04/17 01:36:43;;;;;;;;;1.00;1.00;;;;;21.08;56.00;101490.94;110218;1264;20973;-41
2023/04/17 01:39:10;;;;;;;;;1.00;1.00;;;;;21.08;56.00;101489.13;110229;1251;22081;-40
2023/04/17 01:41:38;;;;;;;;;1.00;1.00;;;;;21.07;55.97;101487.21;110221;1260;19144;-41
2023/04/17 01:44:05;;;;;;;;;1.00;1.00;;;;;21.08;55.96;101487.45;110226;1264;21992;-41
2023/04/17 01:46:33;;;;;;;;;1.00;1.00;;;;;21.08;56.08;101489.44;110247;1252;20146;-45
2023/04/17 01:49:00;;;;;;;;;;;;;;;21.07;56.03;101490.24;110201;1256;19023;-41
2023/04/17 01:51:30;;;;;;;;;1.00;1.00;;;;;21.07;55.98;101492.78;110227;1251;21468;-40
2023/04/17 01:53:58;;;;;;;;;2.00;2.00;;;;;21.07;55.90;101494.04;110251;1264;21501;-40
2023/04/17 01:56:26;;;;;;;;;1.00;1.00;;;;;21.08;55.93;101496.05;109972;1251;23632;-39
2023/04/17 01:58:53;;;;;;;;;1.00;1.00;;;;;21.06;55.95;101497.82;110253;1264;21431;-39
2023/04/17 02:01:21;;;;;;;;;1.00;1.00;;;;;21.06;56.08;101502.14;110265;1264;21397;-39
2023/04/17 02:03:48;;;;;;;;;1.00;1.00;;;;;21.05;55.88;101499.89;110253;1251;19644;-39
2023/04/17 02:06:15;;;;;;;;;1.00;1.00;;;;;21.06;55.87;101505.24;110315;1264;23021;-39
2023/04/17 02:08:43;;;;;;;;;1.00;1.00;;;;;21.06;55.96;101500.77;110277;1251;21686;-39
2023/04/17 02:11:12;;;;;;;;;1.00;1.00;;;;;21.06;56.03;101504.19;110316;1251;19737;-39
2023/04/17 02:13:39;;;;;;;;;2.00;1.00;;;;;21.06;56.03;101502.02;110280;1264;19360;-40
2023/04/17 02:16:08;;;;;;;;;1.00;1.00;;;;;21.06;56.05;101497.13;110240;1251;22933;-39
2023/04/17 02:18:36;;;;;;;;;1.00;1.00;;;;;21.05;55.97;101497.58;110229;1264;20380;-40
2023/04/17 02:21:03;;;;;;;;;2.00;1.00;;;;;21.06;55.93;101499.63;110190;1264;19402;-40
2023/04/17 02:23:30;;;;;;;;;1.00;1.00;;;;;21.06;55.94;101498.95;110221;1264;22756;-40
2023/04/17 02:25:58;;;;;;;;;1.00;1.00;;;;;21.06;55.87;101492.77;110194;1264;19098;-39
2023/04/17 02:28:25;;;;;;;;;1.00;1.00;;;;;21.06;55.94;101492.64;110182;1251;19437;-40
2023/04/17 02:30:53;;;;;;;;;1.00;1.00;;;;;21.05;56.00;101496.83;110202;1251;21504;-39
2023/04/17 02:33:20;;;;;;;;;1.00;1.00;;;;;21.05;56.09;101493.90;110197;1251;22734;-39
2023/04/17 02:35:48;;;;;;;;;1.00;1.00;;;;;21.06;55.94;101498.02;110202;1251;20827;-39
2023/04/17 02:38:15;;;;;;;;;1.00;1.00;;;;;21.05;55.98;101494.84;110191;1264;20113;-39
2023/04/17 02:40:42;;;;;;;;;1.00;1.00;;;;;21.05;55.78;101493.73;110181;1251;19655;-39
2023/04/17 02:43:12;;;;;;;;;1.00;1.00;;;;;21.05;56.02;101495.77;110206;1264;20798;-41
2023/04/17 02:45:39;;;;;;;;;1.00;1.00;;;;;21.06;55.98;101495.13;110197;1264;23532;-41
2023/04/17 02:48:07;;;;;;;;;1.00;1.00;;;;;21.05;55.77;101496.83;110193;1251;19601;-41
2023/04/17 02:50:34;;;;;;;;;1.00;1.00;;;;;21.05;55.98;101493.04;110187;1264;21984;-41
2023/04/17 02:53:01;;;;;;;;;1.00;1.00;;;;;21.05;55.90;101494.64;110184;1264;21669;-40
2023/04/17 02:55:29;;;;;;;;;1.00;1.00;;;;;21.05;56.05;101494.44;110179;1264;19582;-42
2023/04/17 02:57:56;;;;;;;;;1.00;1.00;;;;;21.05;55.91;101500.81;110178;1260;20748;-41
2023/04/17 03:00:25;;;;;;;;;2.00;2.00;;;;;21.06;55.83;101499.68;110189;1264;20167;-43
2023/04/17 03:02:52;;;;;;;;;1.00;1.00;;;;;21.05;55.79;101501.73;110222;1251;22936;-41
2023/04/17 03:05:22;;;;;;;;;1.00;1.00;;;;;21.05;55.82;101504.31;110177;1264;20684;-41
2023/04/17 03:07:49;;;;;;;;;1.00;1.00;;;;;21.05;55.85;101499.98;110201;1251;22645;-39
2023/04/17 03:10:17;;;;;;;;;1.00;1.00;;;;;21.04;55.85;101503.81;110195;1264;19529;-39
2023/04/17 03:12:44;;;;;;;;;1.00;1.00;;;;;21.05;55.93;101506.15;110189;1264;20677;-39
2023/04/17 03:15:11;;;;;;;;;1.00;1.00;;;;;21.04;55.96;101508.90;110221;1264;22932;-39
2023/04/17 03:17:39;;;;;;;;;1.00;1.00;;;;;21.05;55.82;101507.74;110211;1264;19153;-39
2023/04/17 03:20:07;;;;;;;;;1.00;1.00;;;;;21.05;55.87;101507.35;110209;1251;23689;-39
2023/04/17 03:22:35;;;;;;;;;1.00;1.00;;;;;21.05;55.84;101505.23;110220;1250;21640;-39
2023/04/17 03:25:03;;;;;;;;;1.00;1.00;;;;;21.04;55.91;101510.20;110182;1264;20659;-38
2023/04/17 03:27:30;;;;;;;;;1.00;1.00;;;;;21.04;55.92;101511.13;110261;1264;20657;-38
2023/04/17 03:29:58;;;;;;;;;1.00;1.00;;;;;21.05;55.91;101513.20;110268;1264;22974;-40
2023/04/17 03:32:25;;;;;;;;;1.00;1.00;;;;;21.04;55.85;101512.95;110289;1251;19124;-38
2023/04/17 03:34:52;;;;;;;;;1.00;1.00;;;;;21.04;55.99;101511.46;110272;1250;22249;-38
2023/04/17 03:37:20;;;;;;;;;1.00;1.00;;;;;21.04;55.86;101514.05;110279;1264;20144;-39
2023/04/17 03:39:47;;;;;;;;;1.00;1.00;;;;;21.05;55.77;101516.31;110287;1251;19027;-39
2023/04/17 03:42:15;;;;;;;;;1.00;1.00;;;;;21.05;55.73;101524.14;110211;1264;19402;-40
2023/04/17 03:44:42;;;;;;;;;1.33;1.00;;;;;21.04;55.92;101519.84;110193;1257;21720;-39
2023/04/17 03:47:10;;;;;;;;;1.00;1.00;;;;;21.04;55.75;101520.52;110192;1251;19829;-44
2023/04/17 03:49:37;;;;;;;;;1.00;1.00;;;;;21.04;56.03;101525.97;110196;1251;20851;-39
2023/04/17 03:52:04;;;;;;;;;1.00;1.00;;;;;21.04;55.77;101528.93;110240;1264;20120;-39
2023/04/17 03:54:34;;;;;;;;;2.00;1.00;;;;;21.04;55.68;101529.23;110284;1264;20644;-40
2023/04/17 03:57:01;;;;;;;;;1.50;1.00;;;;;21.04;55.84;101525.52;110287;1264;22114;-39
2023/04/17 03:59:29;;;;;;;;;1.00;1.00;;;;;21.04;55.87;101526.38;110253;1250;21544;-39
2023/04/17 04:01:56;;;;;;;;;1.00;1.00;;;;;21.04;55.87;101527.88;110252;1264;19681;-39
2023/04/17 04:04:24;;;;;;;;;1.00;1.00;;;;;21.04;55.83;101530.17;110216;1264;20679;-39
2023/04/17 04:06:53;;;;;;;;;1.00;1.00;;;;;21.04;55.72;101535.30;110212;1251;20344;-39
2023/04/17 04:09:21;;;;;;;;;1.00;1.00;;;;;21.04;55.70;101537.35;110214;1264;23154;-39
2023/04/17 04:11:48;;;;;;;;;1.00;1.00;;;;;21.04;55.79;101531.70;110216;1260;19515;-40
2023/04/17 04:14:16;;;;;;;;;1.00;1.00;;;;;21.04;55.68;101537.27;110289;1251;22694;-40
2023/04/17 04:16:43;;;;;;;;;1.00;1.00;;;;;21.04;55.64;101538.78;110239;1264;19075;-40
2023/04/17 04:19:11;;;;;;;;;1.00;1.00;;;;;21.04;55.77;101541.98;110215;1264;23563;-39
2023/04/17 04:21:38;;;;;;;;;1.00;1.00;;;;;21.04;55.76;101547.45;110208;1251;20148;-39
2023/04/17 04:24:07;;;;;;;;;1.00;1.00;;;;;21.03;55.79;101545.17;110258;1264;20818;-40
2023/04/17 04:26:35;;;;;;;;;2.00;2.00;;;;;21.04;55.69;101548.95;110262;1251;23529;-40
2023/04/17 04:29:03;;;;;;;;;1.00;1.00;;;;;21.04;55.75;101551.31;110264;1264;22907;-38
2023/04/17 04:31:30;;;;;;;;;1.00;1.00;;;;;21.04;55.64;101552.20;110232;1251;22827;-39
2023/04/17 04:33:57;;;;;;;;;;;;;;;21.03;55.83;101551.52;110168;1264;20631;-39
2023/04/17 04:36:28;;;;;;;;;2.00;2.00;;;;;21.04;55.71;101553.09;110228;1251;21696;-40
2023/04/17 04:38:58;;;;;;;;;1.00;1.00;;;;;21.04;55.60;101554.42;110240;1251;22393;-40
2023/04/17 04:41:26;;;;;;;;;1.00;1.00;;;;;21.04;55.74;101559.45;110269;1264;22936;-40
2023/04/17 04:43:54;;;;;;;;;1.00;1.00;;;;;21.05;55.65;101561.63;110265;1251;20175;-40
2023/04/17 04:46:21;;;;;;;;;1.00;1.00;;;;;21.04;55.60;101563.47;110266;1264;19218;-40
2023/04/17 04:48:49;;;;;;;;;1.00;1.00;;;;;21.03;55.89;101563.95;110257;1251;20790;-39
2023/04/17 04:51:17;;;;;;;;;1.00;1.00;;;;;21.03;55.87;101566.98;110188;1251;22799;-39
2023/04/17 04:53:45;;;;;;;;;1.00;1.00;;;;;21.02;55.73;101566.19;110337;1250;21273;-39
2023/04/17 04:56:12;;;;;;;;;1.00;1.00;;;;;21.03;55.84;101566.98;110272;1250;20602;-40
2023/04/17 04:58:40;;;;;;;;;1.00;1.00;;;;;21.05;55.66;101571.91;110229;1264;21715;-42
2023/04/17 05:01:07;;;;;;;;;1.00;1.00;;;;;21.08;55.79;101571.45;110199;1250;20907;-40
2023/04/17 05:03:36;;;;;;;;;1.00;1.00;;;;;21.11;55.94;101573.84;110213;1250;22171;-40
2023/04/17 05:06:03;;;;;;;;;1.00;1.00;;;;;21.12;56.06;101569.27;110177;1256;20177;-40
2023/04/17 05:08:30;;;;;;;;;2.00;2.00;;;;;21.15;56.14;101572.69;110169;1264;19543;-40
2023/04/17 05:10:58;;;;;;;;;69.00;58.50;;;;;21.18;56.00;101572.04;110169;1251;22189;-40
2023/04/17 05:13:25;;;;;;;;;69.50;58.50;;;;;21.23;56.49;101575.17;110194;1251;22994;-40
2023/04/17 05:15:53;;;;;;;;;52.00;45.00;;;;;21.25;57.33;101578.60;110180;1264;19947;-40
2023/04/17 05:18:20;;;;;;;;;39.00;37.00;;;;;21.28;58.45;101580.46;110145;1250;22168;-41
2023/04/17 05:20:48;;;;;;;;;33.00;32.00;;;;;21.30;59.18;101582.39;110172;1264;21794;-41
2023/04/17 05:23:15;;;;;;;;;24.00;24.00;;;;;21.33;59.29;101587.38;110133;1264;19968;-41
2023/04/17 05:25:42;;;;;;;;;24.00;24.00;;;;;21.30;58.67;101583.68;110101;1264;23082;-41
2023/04/17 05:28:10;;;;;;;;;21.00;18.00;;;;;21.23;58.51;101586.92;110150;1249;20136;-41
2023/04/17 05:30:38;;;;;;;;;18.00;18.00;;;;;21.16;57.77;101589.47;110174;1264;19982;-41
2023/04/17 05:33:05;;;;;;;;;15.00;13.00;;;;;21.08;56.79;101588.89;110204;1264;20796;-41
2023/04/17 05:35:32;;;;;;;;;15.00;14.00;;;;;21.01;55.98;101594.67;110289;1264;23733;-41
2023/04/17 05:38:00;;;;;;;;;13.00;13.00;;;;;20.97;55.06;101594.77;110305;1251;20023;-41
2023/04/17 05:40:27;;;;;;;;;14.00;14.00;;;;;20.93;54.35;101595.02;110243;1264;21229;-41
2023/04/17 05:42:55;;;;;;;;;18.00;16.00;;;;;20.87;53.46;101598.66;110214;1264;20002;-41
2023/04/17 05:45:22;;;;;;;;;13.00;12.00;;;;;20.83;52.67;101599.11;110213;1264;19242;-40
2023/04/17 05:47:50;;;;;;;;;17.00;14.00;;;;;20.78;51.90;101600.15;110154;1264;23174;-41
2023/04/17 05:50:17;;;;;;;;;14.00;13.50;;;;;20.76;51.18;101598.53;110210;1264;20261;-40
2023/04/17 05:52:47;;;;;;;;;13.00;11.00;;;;;20.74;50.46;101596.56;110243;1264;23115;-43
2023/04/17 05:55:14;;;;;;;;;11.00;11.00;;;;;20.78;50.55;101600.31;110249;1264;20789;-42
2023/04/17 05:57:42;;;;;;;;;11.00;11.00;;;;;20.84;50.84;101601.70;110194;1250;20151;-40
2023/04/17 06:00:11;;;;;;;;;11.00;11.00;;;;;20.88;50.89;101601.37;110159;1250;19871;-40
2023/04/17 06:02:39;;;;;;;;;10.00;8.00;;;;;20.90;50.96;101604.73;110251;1264;24256;-42
2023/04/17 06:05:07;;;;;;;;;11.67;11.00;;;;;20.92;51.11;101608.66;110233;1264;20446;-40
2023/04/17 06:07:37;;;;;;;;;10.00;10.00;;;;;20.93;51.34;101610.38;110185;1264;18972;-40
2023/04/17 06:10:04;;;;;;;;;8.00;7.00;;;;;20.94;51.57;101612.27;110203;1251;20009;-41
2023/04/17 06:12:32;;;;;;;;;7.00;5.00;;;;;20.94;51.59;101613.56;110201;1249;20120;-40
2023/04/17 06:15:00;;;;;;;;;8.00;7.00;;;;;20.96;51.75;101618.85;110208;1251;19564;-40
2023/04/17 06:17:27;;;;;;;;;7.00;7.00;;;;;20.95;51.92;101619.05;110186;1264;22722;-40
2023/04/17 06:19:55;;;;;;;;;7.00;7.00;;;;;20.96;52.14;101617.35;110190;1264;20143;-41
2023/04/17 06:22:22;;;;;;;;;7.00;5.00;;;;;20.96;52.19;101617.02;110208;1264;19243;-40
2023/04/17 06:24:49;;;;;;;;;5.00;5.00;;;;;20.97;52.35;101618.55;110194;1260;20996;-45
2023/04/17 06:27:17;;;;;;;;;7.00;5.00;;;;;20.97;52.52;101618.88;110210;1250;20094;-40
2023/04/17 06:29:44;;;;;;;;;7.00;7.00;;;;;20.97;52.65;101622.02;110225;1264;23458;-41
2023/04/17 06:32:12;;;;;;;;;5.00;4.33;;;;;20.97;52.77;101619.05;110169;1264;20717;-41
2023/04/17 06:34:39;;;;;;;;;4.00;4.00;;;;;20.97;52.83;101626.86;110182;1251;20106;-41
2023/04/17 06:37:07;;;;;;;;;5.00;5.00;;;;;20.97;53.01;101629.92;110189;1250;19851;-40
2023/04/17 06:39:35;;;;;;;;;4.00;4.00;;;;;20.97;52.90;101630.85;110190;1249;22060;-41
2023/04/17 06:42:03;;;;;;;;;7.00;5.00;;;;;20.97;52.95;101636.30;110197;1264;20166;-40
2023/04/17 06:44:30;;;;;;;;;4.50;4.00;;;;;20.97;53.06;101636.63;110226;1264;19561;-40
2023/04/17 06:47:02;;;;;;;;;4.00;4.00;;;;;20.98;53.12;101638.42;110306;1264;19661;-40
2023/04/17 06:49:30;;;;;;;;;4.00;4.00;;;;;20.97;53.17;101641.40;110277;1264;22928;-40
2023/04/17 06:51:57;;;;;;;;;4.00;4.00;;;;;20.99;53.28;101645.27;110226;1264;23107;-40
2023/04/17 06:54:25;;;;;;;;;4.50;4.50;;;;;20.97;53.20;101644.36;110174;1259;19357;-41
2023/04/17 06:56:52;;;;;;;;;10.50;9.00;;;;;20.97;53.17;101649.06;110215;1264;21465;-41
2023/04/17 06:59:20;;;;;;;;;10.00;8.67;;;;;20.93;53.02;101650.89;110216;1251;19581;-41
2023/04/17 07:01:47;;;;;;;;;8.00;7.67;;;;;20.89;52.30;101648.96;110195;1264;19516;-41
2023/04/17 07:04:16;;;;;;;;;13.00;11.00;;;;;20.84;51.54;101648.71;110211;1264;23306;-43
2023/04/17 07:06:44;;;;;;;;;10.00;10.00;;;;;20.83;50.87;101650.75;110210;1264;20868;-42
2023/04/17 07:09:11;;;;;;;;;11.00;10.00;;;;;20.77;50.65;101651.09;110209;1264;19436;-39
2023/04/17 07:11:38;;;;;;;;;10.50;8.00;;;;;20.75;50.51;101650.36;110195;1264;20136;-41
2023/04/17 07:14:06;;;;;;;;;10.50;9.00;;;;;20.84;50.80;101652.19;110199;1251;23483;-41
2023/04/17 07:16:34;;;;;;;;;10.00;9.00;;;;;20.90;51.14;101654.52;110150;1264;21533;-42
2023/04/17 07:19:01;;;;;;;;;7.00;7.00;;;;;20.94;51.79;101659.17;110263;1264;23425;-40
2023/04/17 07:21:29;;;;;;;;;7.67;7.00;;;;;20.98;52.24;101657.84;110212;1251;19969;-41
2023/04/17 07:23:56;;;;;;;;;10.00;9.00;;;;;21.02;52.49;101660.91;110195;1264;22923;-40
2023/04/17 07:26:24;;;;;;;;;8.00;8.00;;;;;21.00;52.49;101659.84;110159;1264;21553;-41
2023/04/17 07:28:51;;;;;;;;;8.00;8.00;;;;;20.99;52.48;101659.98;110225;1251;21067;-41
2023/04/17 07:31:20;;;;;;;;;8.00;7.00;;;;;20.99;52.59;101660.27;110178;1264;20810;-40
2023/04/17 07:33:48;;;;;;;;;7.00;7.00;;;;;21.02;52.91;101664.17;110215;1264;21693;-40
2023/04/17 07:36:15;;;;;;;;;5.00;5.00;;;;;21.04;52.66;101667.72;110186;1264;20818;-40
2023/04/17 07:38:43;;;;;;;;;7.50;7.00;;;;;21.05;53.03;101662.89;110209;1251;20849;-40
2023/04/17 07:41:11;;;;;;;;;5.00;5.00;;;;;21.08;53.07;101670.61;110166;1250;22002;-40
2023/04/17 07:43:38;;;;;;;;;7.00;5.00;;;;;21.11;53.23;101671.46;110212;1264;24976;-40
2023/04/17 07:46:06;;;;;;;;;4.50;4.50;;;;;21.11;53.34;101671.25;110179;1264;20717;-40
2023/04/17 07:48:33;;;;;;;;;4.50;4.50;;;;;21.13;53.37;101676.67;110247;1251;20119;-40
2023/04/17 07:51:01;;;;;;;;;7.00;5.00;;;;;21.15;53.60;101673.53;110242;1264;19560;-39
2023/04/17 07:53:28;;;;;;;;;5.00;5.00;;;;;21.18;53.53;101677.11;110281;1251;19551;-39
2023/04/17 07:55:57;;;;;;;;;5.00;5.00;;;;;21.16;53.39;101677.62;110260;1251;22830;-39
2023/04/17 07:58:25;;;;;;;;;8.00;8.00;;;;;21.15;52.70;101681.05;110209;1249;23631;-40
2023/04/17 08:00:53;;;;;;;;;13.00;11.00;;;;;21.11;52.14;101683.45;110160;1251;23649;-40
2023/04/17 08:03:22;;;;;;;;;13.00;12.00;;;;;21.02;51.26;101683.39;110164;1250;20095;-40
2023/04/17 08:05:50;;;;;;;;;14.00;13.00;;;;;21.00;50.77;101681.33;110181;1264;19384;-40
2023/04/17 08:08:18;;;;;;;;;10.00;10.00;;;;;20.89;49.99;101682.97;109743;1257;19592;-46
2023/04/17 08:10:46;;;;;;;;;11.00;11.00;;;;;20.91;49.97;101678.17;110028;1251;21672;-41
2023/04/17 08:13:14;;;;;;;;;10.00;9.00;;;;;20.92;49.46;101681.52;110185;1257;19147;-42
2023/04/17 08:15:42;;;;;;;;;11.00;11.00;;;;;20.94;48.84;101678.80;110175;1251;20810;-41
2023/04/17 08:18:10;;;;;;;;;11.00;10.00;;;;;20.95;48.68;101678.55;110149;1264;21633;-40
2023/04/17 08:20:37;;;;;;;;;14.00;13.00;;;;;20.90;48.07;101682.50;110144;1251;19313;-40
2023/04/17 08:23:06;;;;;;;;;13.00;13.00;;;;;20.75;47.68;101685.23;110106;1264;22238;-42
2023/04/17 08:25:33;;;;;;;;;14.00;11.00;;;;;20.80;47.64;101686.79;110216;1264;21653;-40
2023/04/17 08:28:00;;;;;;;;;10.00;8.00;;;;;20.80;47.23;101686.89;110044;1264;152169;-41
2023/04/17 08:30:28;;;;;;;;;10.00;10.00;;;;;20.79;46.90;101694.30;110145;1251;23475;-40
2023/04/17 08:32:56;;;;;;;;;17.00;16.00;;;;;20.71;46.67;101692.04;110151;1264;21543;-40
2023/04/17 08:35:24;;;;;;;;;11.00;11.00;;;;;20.72;46.21;101691.94;110135;1264;19179;-39
2023/04/17 08:37:54;;;;;;;;;11.00;10.00;;;;;20.73;45.97;101693.79;110136;1251;22708;-41
2023/04/17 08:40:23;;;;;;;;;14.00;11.00;;;;;20.71;45.82;101693.81;110138;1260;20145;-40
2023/04/17 08:42:50;;;;;;;;;11.00;10.00;;;;;20.69;45.51;101699.29;110107;1257;23611;-40
2023/04/17 08:45:19;;;;;;;;;12.00;10.50;;;;;20.65;45.25;101701.77;110141;1264;21267;-40
2023/04/17 08:47:47;;;;;;;;;8.00;8.00;;;;;20.58;45.07;101698.06;110134;1264;20329;-40
2023/04/17 08:50:15;;;;;;;;;11.00;10.00;;;;;20.54;45.00;101698.31;110155;1264;19242;-39
2023/04/17 08:52:42;;;;;;;;;11.00;10.00;;;;;20.48;44.94;101695.95;110184;1264;19422;-39
2023/04/17 08:55:10;;;;;;;;;7.00;7.00;;;;;20.51;44.87;101701.13;110118;1264;20102;-43
2023/04/17 08:57:38;;;;;;;;;8.00;8.00;;;;;20.56;44.74;101699.13;110062;1264;22994;-40
2023/04/17 09:00:10;;;;;;;;;12.00;10.00;;;;;20.62;45.08;101698.91;110120;1259;21948;-40
2023/04/17 09:02:38;;;;;;;;;7.00;7.00;;;;;20.64;45.07;101696.96;110012;1250;23157;-41
2023/04/17 09:05:06;;;;;;;;;10.00;7.00;;;;;20.64;44.89;101703.66;110042;1251;22651;-41
2023/04/17 09:07:33;;;;;;;;;8.00;7.00;;;;;20.60;44.93;101703.88;110143;1264;22263;-39
2023/04/17 09:10:01;;;;;;;;;8.00;7.00;;;;;20.57;44.86;101707.46;110248;1264;20120;-39
2023/04/17 09:12:28;;;;;;;;;8.00;7.00;;;;;20.53;44.67;101707.27;110189;1264;19588;-40
2023/04/17 09:14:56;;;;;;;;;10.00;10.00;;;;;20.52;44.53;101712.79;110202;1264;22718;-40
2023/04/17 09:17:23;;;;;;;;;7.00;5.00;;;;;20.50;44.46;101711.48;110195;1250;21484;-41
2023/04/17 09:19:51;;;;;;;;;11.00;7.00;;;;;20.52;44.32;101715.66;110187;1264;20400;-40
2023/04/17 09:22:18;;;;;;;;;11.00;10.00;;;;;20.54;44.15;101712.45;110199;1264;20717;-40
2023/04/17 09:24:47;;;;;;;;;10.00;10.00;;;;;20.54;44.05;101709.66;110184;1264;20035;-40
2023/04/17 09:27:15;;;;;;;;;7.00;5.00;;;;;20.56;44.19;101711.70;110172;1250;22795;-42
2023/04/17 09:29:42;;;;;;;;;7.00;7.00;;;;;20.57;44.38;101709.75;110157;1264;23478;-40
2023/04/17 09:32:09;;;;;;;;;6.00;6.00;;;;;20.58;44.30;101709.33;110196;1264;20302;-41
2023/04/17 09:34:37;;;;;;;;;7.00;7.00;;;;;20.59;44.44;101707.95;110253;1250;20891;-40
2023/04/17 09:37:04;;;;;;;;;5.00;5.00;;;;;20.62;44.59;101709.13;110236;1264;23023;-40
2023/04/17 09:39:33;;;;;;;;;5.00;5.00;;;;;20.61;44.77;101708.44;110179;1250;21529;-40
2023/04/17 09:42:01;;;;;;;;;7.00;6.00;;;;;20.61;44.70;101709.52;110235;1256;22657;-40
2023/04/17 09:44:28;;;;;;;;;7.00;6.00;;;;;20.61;44.79;101710.10;110244;1251;24721;-40
2023/04/17 09:46:56;;;;;;;;;5.00;5.00;;;;;20.62;44.73;101714.51;110229;1251;22876;-38
2023/04/17 09:49:23;;;;;;;;;8.00;8.00;;;;;20.65;44.77;101714.47;110209;1264;19091;-39
2023/04/17 09:51:51;;;;;;;;;5.00;5.00;;;;;20.69;45.10;101716.77;110240;1251;20894;-39
2023/04/17 09:54:18;;;;;;;;;7.00;7.00;;;;;20.69;45.18;101717.48;110184;1251;20146;-39
2023/04/17 09:56:48;;;;;;;;;4.50;4.50;;;;;20.68;45.23;101717.91;110171;1264;22843;-39
2023/04/17 09:59:15;;;;;;;;;5.00;5.00;;;;;20.72;45.46;101712.68;110187;1264;22734;-41
2023/04/17 10:01:43;;;;;;;;;6.00;5.00;;;;;20.76;45.48;101718.39;110201;1250;23589;-41
2023/04/17 10:04:10;;;;;;;;;5.00;5.00;;;;;20.79;45.51;101715.59;110216;1257;19590;-40
2023/04/17 10:06:38;;;;;;;;;6.50;6.00;;;;;20.81;45.67;101717.75;110186;1264;21069;-40
2023/04/17 10:09:06;;;;;;;;;4.00;4.00;;;;;20.84;46.04;101715.30;110202;1259;21754;-40
2023/04/17 10:11:34;;;;;;;;;4.50;4.50;;;;;20.85;46.46;101714.12;110177;1264;19603;-41
2023/04/17 10:14:01;;;;;;;;;9.00;5.00;;;;;20.87;46.78;101717.17;110216;1264;19561;-40
2023/04/17 10:16:29;;;;;;;;;4.00;4.00;;;;;20.86;47.22;101718.46;110176;1264;21524;-40
2023/04/17 10:18:56;;;;;;;;;4.00;4.00;;;;;20.87;47.44;101720.02;110172;1251;19629;-40
2023/04/17 10:21:24;;;;;;;;;4.00;2.00;;;;;20.88;47.61;101716.29;110201;1249;24372;-41
2023/04/17 10:23:51;;;;;;;;;2.00;2.00;;;;;20.89;47.97;101718.52;110224;1264;20119;-39
2023/04/17 10:26:19;;;;;;;;;4.00;4.00;;;;;20.90;48.00;101715.40;110181;1251;23464;-40
2023/04/17 10:28:46;;;;;;;;;4.00;4.00;;;;;20.91;48.33;101722.30;110186;1264;23577;-41
2023/04/17 10:31:14;;;;;;;;;2.00;2.00;;;;;20.92;48.50;101717.33;110187;1264;20101;-43
2023/04/17 10:33:41;;;;;;;;;4.00;4.00;;;;;20.92;48.65;101717.88;110155;1251;19168;-41
2023/04/17 10:36:09;;;;;;;;;2.00;2.00;;;;;20.95;48.98;101715.18;110171;1264;22968;-40
2023/04/17 10:38:37;;;;;;;;;4.00;3.33;;;;;20.98;49.00;101717.14;110153;1265;22605;-40
2023/04/17 10:41:04;;;;;;;;;3.00;2.00;;;;;20.96;49.24;101714.78;110200;1256;19213;-41
2023/04/17 10:43:32;;;;;;;;;2.00;2.00;;;;;20.97;49.72;101716.98;110066;1259;20944;-38
2023/04/17 10:45:59;;;;;;;;;4.00;2.00;;;;;20.99;49.64;101716.28;110190;1265;20277;-39
2023/04/17 10:48:28;;;;;;;;;4.00;2.00;;;;;20.98;49.83;101713.27;110174;1266;20589;-40
2023/04/17 10:50:55;;;;;;;;;4.00;2.00;;;;;20.97;49.99;101713.35;110165;1265;20945;-40
2023/04/17 10:53:22;;;;;;;;;2.00;2.00;;;;;20.96;50.30;101712.53;110200;1265;21541;-40
2023/04/17 10:55:50;;;;;;;;;2.00;2.00;;;;;20.96;50.29;101714.41;110187;1266;19193;-40
2023/04/17 10:58:17;;;;;;;;;2.00;2.00;;;;;20.97;50.25;101714.64;110188;1251;21173;-41
2023/04/17 11:00:45;;;;;;;;;2.00;2.00;;;;;20.97;50.26;101715.03;110172;1265;22255;-43
2023/04/17 11:03:12;;;;;;;;;2.00;2.00;;;;;20.97;50.55;101721.80;110198;1250;19684;-40
2023/04/17 11:05:40;;;;;;;;;2.00;2.00;;;;;20.94;50.40;101718.23;110171;1250;23032;-40
2023/04/17 11:08:07;;;;;;;;;2.00;2.00;;;;;20.96;50.54;101715.91;110187;1265;20144;-40
2023/04/17 11:10:34;;;;;;;;;2.00;2.00;;;;;20.97;50.66;101714.86;110210;1265;19447;-41
2023/04/17 11:13:02;;;;;;;;;1.50;1.50;;;;;20.98;50.67;101715.59;110173;1265;23035;-39
2023/04/17 11:15:30;;;;;;;;;2.00;2.00;;;;;20.97;50.86;101715.20;110185;1260;21870;-40